Latest Coastal Weather Observations for Low Head

IDT60701

Issued at 1:32 pm EDT Tuesday 2 March 2021 (issued every 10 minutes, with the page automatically refreshed every 10 minutes)

About coastal observations | Map of coastal stations | Coastal observations for TAS | Marine services | Other Formats
Station Details ID: 091293 Name: LOW HEAD Lat: -41.05 Lon: 146.79 Height: 3.0 m
Data from the previous 72 hours. | See also: Recent months at Low Head
Date/Time
EDT
Wind Sea
Height
m
Swell Vis
km
Cloud Weather Temp
°C
Press
MSL
hPa
Rain since
9am
mm
Dir  Spd
kts
Gust
kts
Height
m
Period
s
Dir
02/01:30pm SSW 15 20 - - - - - - - 17.6 1013.7 0.0
02/01:00pm SSW 16 22 - - - - - - - 17.5 1013.5 0.0
02/12:30pm SSW 17 22 - - - - - - - 16.8 1013.5 0.0
02/12:00pm SSW 15 23 - - - - - - - 16.2 1013.6 0.0
02/11:30am SSW 21 26 - - - - - - - 16.1 1013.3 0.0
02/11:16am SW 16 26 - - - - - - - 16.0 1013.2 0.0
02/11:00am SW 13 20 - - - - - - - 15.8 1013.3 0.0
02/10:30am SW 14 18 - - - - - - - 15.0 1013.3 0.0
02/10:00am SW 14 17 - - - - - - - 14.8 1013.1 0.0
02/09:30am SW 17 19 - - - - - - - 14.4 1012.9 0.0
02/09:00am SW 13 16 - - - - - - - 13.7 1012.5 0.0
02/08:30am SW 13 16 - - - - - - - 12.9 1012.2 0.0
02/08:00am WSW 16 18 - - - - - - - 12.0 1011.7 0.0
02/07:30am WSW 20 22 - - - - - - - 12.1 1011.3 0.0
02/07:00am WSW 20 22 - - - - - - - 12.2 1010.9 0.0
02/06:30am WSW 19 22 - - - - - - - 12.4 1010.6 0.0
02/06:00am WSW 18 21 - - - - - - - 12.8 1010.4 0.0
02/05:30am WSW 19 22 - - - - - - - 12.9 1010.1 0.0
02/05:00am WSW 23 27 - - - - - - - 13.3 1009.7 0.0
02/04:30am WSW 22 26 - - - - - - - 13.6 1009.7 0.0
02/04:00am WSW 21 26 - - - - - - - 13.3 1009.6 0.0
02/03:30am WSW 23 27 - - - - - - - 13.5 1009.2 0.0
02/03:00am WSW 24 28 - - - - - - - 13.5 1008.7 0.0
02/02:30am WSW 26 31 - - - - - - - 13.5 1008.5 0.0
02/02:00am WSW 26 31 - - - - - - - 13.9 1008.6 0.0
02/01:30am WSW 26 30 - - - - - - - 13.8 1008.7 0.0
02/01:00am WSW 25 31 - - - - - - - 13.9 1008.2 0.0
02/12:30am WSW 24 29 - - - - - - - 13.4 1008.5 0.0
02/12:00am WSW 24 30 - - - - - - - 13.1 1008.4 0.0
 
Date/Time
EDT
Wind Sea
Height
m
Swell Vis
km
Cloud Weather Temp
°C
Press
MSL
hPa
Rain since
9am
mm
Dir  Spd
kts
Gust
kts
Height
m
Period
s
Dir
01/11:51pm WSW 20 30 - - - - - - - 13.0 1008.2 0.0
01/11:30pm WSW 23 28 - - - - - - - 13.1 1008.9 0.0
01/11:00pm WSW 28 35 - - - - - - - 13.5 1007.8 0.0
01/10:30pm WSW 26 33 - - - - - - - 13.7 1007.9 0.0
01/10:00pm WSW 29 34 - - - - - - - 13.9 1007.4 0.0
01/09:30pm WSW 31 38 - - - - - - - 14.1 1006.9 0.0
01/09:06pm WSW 31 41 - - - - - - - 14.1 1006.2 0.0
01/09:00pm WSW 30 36 - - - - - - - 14.3 1006.1 0.0
01/08:30pm WSW 25 31 - - - - - - - 14.3 1006.0 0.0
01/08:00pm WSW 32 39 - - - - - - - 14.5 1005.4 0.0
01/07:30pm WSW 28 33 - - - - - - - 15.1 1004.7 0.0
01/07:00pm WSW 29 34 - - - - - - - 15.3 1004.2 0.0
01/06:43pm W 30 40 - - - - - - - 15.5 1004.2 0.0
01/06:30pm WSW 33 39 - - - - - - - 15.8 1004.0 0.0
01/06:17pm WSW 31 41 - - - - - - - 16.0 1003.8 0.0
01/06:00pm W 30 37 - - - - - - - 16.0 1003.9 0.0
01/05:30pm W 31 37 - - - - - - - 16.6 1003.6 0.0
01/05:00pm WSW 28 37 - - - - - - - 17.3 1003.5 0.0
01/04:30pm W 29 36 - - - - - - - 18.0 1003.5 0.0
01/04:00pm W 28 34 - - - - - - - 18.5 1003.4 0.0
01/03:30pm W 26 33 - - - - - - - 18.2 1003.9 0.0
01/03:00pm WNW 28 33 - - - - - - - 18.6 1004.3 0.0
01/02:30pm WNW 28 34 - - - - - - - 19.2 1004.6 0.0
01/02:00pm WNW 24 29 - - - - - - - 19.4 1004.8 0.0
01/01:30pm WNW 24 29 - - - - - - - 19.6 1005.2 0.0
01/01:00pm WNW 20 23 - - - - - - - 19.7 1005.4 0.0
01/12:30pm WNW 18 21 - - - - - - - 19.6 1005.9 0.0
01/12:00pm WNW 18 20 - - - - - - - 19.0 1006.5 0.0
01/11:30am WNW 15 18 - - - - - - - 19.7 1006.6 0.0
01/11:00am WNW 14 17 - - - - - - - 19.5 1006.8 0.0
01/10:30am WNW 13 15 - - - - - - - 19.0 1007.1 0.0
01/10:00am WNW 13 15 - - - - - - - 18.5 1007.2 0.0
01/09:30am WNW 11 13 - - - - - - - 18.6 1007.2 0.0
01/09:00am WNW 9 10 - - - - - - - 18.4 1007.2 0.0
01/08:30am WNW 9 11 - - - - - - - 17.8 1007.4 0.0
01/08:00am NW 10 12 - - - - - - - 17.8 1007.4 0.0
01/07:30am NW 9 10 - - - - - - - 17.7 1007.5 0.0
01/07:00am NW 7 9 - - - - - - - 17.5 1007.5 0.0
01/06:30am NW 7 8 - - - - - - - 17.4 1007.5 0.0
01/06:00am NNW 6 7 - - - - - - - 17.6 1007.4 0.0
01/05:30am NW 7 8 - - - - - - - 17.5 1007.7 0.0
01/05:00am NNW 6 7 - - - - - - - 17.6 1007.8 0.0
01/04:30am NNW 5 6 - - - - - - - 17.3 1007.9 0.0
01/04:00am NW 6 7 - - - - - - - 17.4 1008.1 0.0
01/03:30am NNW 7 8 - - - - - - - 17.5 1008.5 0.0
01/03:00am NW 8 9 - - - - - - - 17.5 1009.0 0.0
01/02:30am NW 9 11 - - - - - - - 17.5 1009.1 0.0
01/02:00am NNW 8 9 - - - - - - - 17.4 1009.2 0.0
01/01:30am NNW 7 8 - - - - - - - 17.3 1009.4 0.0
01/01:00am ENE 4 5 - - - - - - - 16.1 1009.5 0.0
01/12:30am E 4 5 - - - - - - - 16.2 1009.9 0.0
01/12:00am E 5 6 - - - - - - - 16.2 1010.1 0.0
 
Date/Time
EDT
Wind Sea
Height
m
Swell Vis
km
Cloud Weather Temp
°C
Press
MSL
hPa
Rain since
9am
mm
Dir  Spd
kts
Gust
kts
Height
m
Period
s
Dir
28/11:30pm ENE 4 5 - - - - - - - 16.6 1010.1 0.0
28/11:00pm WNW 4 6 - - - - - - - 17.4 1010.4 0.0
28/10:30pm WNW 5 7 - - - - - - - 17.4 1010.6 0.0
28/10:00pm WNW 7 8 - - - - - - - 17.5 1010.8 0.0
28/09:30pm WNW 7 8 - - - - - - - 17.7 1010.8 0.0
28/09:00pm WNW 8 10 - - - - - - - 17.8 1010.9 0.0
28/08:30pm WNW 9 11 - - - - - - - 17.9 1010.8 0.0
28/08:00pm NW 11 12 - - - - - - - 18.1 1010.5 0.0
28/07:30pm NW 10 12 - - - - - - - 18.5 1010.6 0.0
28/07:00pm NW 11 12 - - - - - - - 18.5 1010.5 0.0
28/06:30pm NW 12 14 - - - - - - - 19.0 1010.7 0.0
28/06:00pm NW 11 13 - - - - - - - 19.7 1010.6 0.0
28/05:30pm NW 12 15 - - - - - - - 20.1 1010.7 0.0
28/05:00pm NNW 11 13 - - - - - - - 19.7 1010.6 0.0
28/04:30pm NNW 11 13 - - - - - - - 19.9 1010.8 0.0
28/04:00pm NNW 10 12 - - - - - - - 19.9 1011.0 0.0
28/03:30pm NNW 11 13 - - - - - - - 20.2 1011.3 0.0
28/03:00pm NW 13 14 - - - - - - - 20.2 1011.7 0.0
28/02:30pm NW 12 14 - - - - - - - 20.7 1011.9 0.0
28/02:00pm NW 11 13 - - - - - - - 21.3 1012.0 0.0
28/01:30pm NW 11 13 - - - - - - - 20.9 1012.4 0.0
28/01:00pm NW 10 11 - - - - - - - 20.6 1012.9 0.0
28/12:30pm NW 10 12 - - - - - - - 20.7 1013.3 0.0
28/12:00pm NW 9 10 - - - - - - - 20.2 1013.7 0.0
28/11:30am NNW 8 10 - - - - - - - 19.0 1013.7 0.0
28/11:00am N 7 8 - - - - - - - 18.5 1013.8 0.0
28/10:30am N 5 6 - - - - - - - 18.7 1013.9 0.0
28/10:00am NNE 4 4 - - - - - - - 17.7 1013.8 0.0
28/09:30am SSE 3 4 - - - - - - - 17.3 1013.7 0.0
28/09:00am SSE 5 7 - - - - - - - 16.2 1013.6 0.0
28/08:30am S 6 7 - - - - - - - 15.3 1013.7 0.0
28/08:00am S 5 7 - - - - - - - 15.0 1013.7 0.0
28/07:30am SE 5 6 - - - - - - - 14.6 1013.4 0.0
28/07:00am SSE 7 7 - - - - - - - 14.1 1013.1 0.0
28/06:30am SSE 6 7 - - - - - - - 14.4 1013.0 0.0
28/06:00am SE 6 7 - - - - - - - 14.1 1013.0 0.0
28/05:30am SSE 6 6 - - - - - - - 14.3 1012.9 0.0
28/05:00am SSE 6 7 - - - - - - - 14.2 1013.0 0.0
28/04:30am SSE 7 8 - - - - - - - 14.4 1013.4 0.0
28/04:00am SE 4 5 - - - - - - - 14.5 1013.4 0.0
28/03:30am SSE 2 4 - - - - - - - 15.4 1013.5 0.0
28/03:00am ESE 4 6 - - - - - - - 14.8 1013.6 0.0
28/02:30am E 5 6 - - - - - - - 15.1 1013.5 0.0
28/02:00am E 6 7 - - - - - - - 15.6 1013.6 0.0
28/01:30am E 6 7 - - - - - - - 15.4 1013.6 0.0
28/01:00am N 4 7 - - - - - - - 17.0 1013.6 0.0
28/12:30am NW 5 6 - - - - - - - 17.1 1013.7 0.0
28/12:00am NW 7 8 - - - - - - - 17.3 1013.9 0.0
 
Date/Time
EDT
Wind Sea
Height
m
Swell Vis
km
Cloud Weather Temp
°C
Press
MSL
hPa
Rain since
9am
mm
Dir  Spd
kts
Gust
kts
Height
m
Period
s
Dir
27/11:30pm NW 8 9 - - - - - - - 17.3 1014.0 0.0
27/11:00pm NW 9 10 - - - - - - - 17.3 1013.9 0.0
27/10:30pm WNW 7 9 - - - - - - - 17.2 1013.9 0.0
27/10:00pm NW 5 7 - - - - - - - 17.2 1013.8 0.0
27/09:30pm SW 4 6 - - - - - - - 16.9 1013.6 0.0
27/09:00pm WSW 5 8 - - - - - - - 17.1 1013.7 0.0
27/08:30pm W 11 13 - - - - - - - 17.5 1013.4 0.0
27/08:00pm W 10 13 - - - - - - - 17.3 1013.4 0.0
27/07:30pm WNW 10 11 - - - - - - - 17.4 1013.4 0.0
27/07:00pm WNW 10 12 - - - - - - - 17.5 1013.2 0.0
27/06:30pm NW 10 13 - - - - - - - 17.7 1013.2 0.0
27/06:00pm NW 10 12 - - - - - - - 18.2 1013.0 0.0
27/05:30pm NW 10 12 - - - - - - - 18.6 1013.1 0.0
27/05:00pm WNW 9 11 - - - - - - - 18.9 1013.2 0.0
27/04:30pm WNW 9 11 - - - - - - - 18.5 1013.3 0.0
27/04:00pm WNW 9 11 - - - - - - - 19.3 1013.4 0.0
27/03:30pm NW 9 11 - - - - - - - 19.7 1013.7 0.0
27/03:00pm WNW 9 11 - - - - - - - 19.4 1013.9 0.0
27/02:30pm WNW 9 11 - - - - - - - 18.7 1014.2 0.0
27/02:00pm WNW 8 10 - - - - - - - 19.6 1014.2 0.0

Other formats

Comma delimited format used in spreadsheet applications
http://www.bom.gov.au/fwo/IDT60701/IDT60701.95964.axf

JavaScript Object Notation format (JSON) in row-major order
http://www.bom.gov.au/fwo/IDT60701/IDT60701.95964.json

Data quality

Most of these data are generated automatically and are frequently updated. Quality checks on data are not normally performed. It is possible for incorrect values to appear. Refer to information at About Latest Weather Observations and please check the disclaimer before using these data.